sensor_id;sensor_type;location;lat;lon;timestamp;temperature;humidity
80367;DHT22;70058;42.660;23.366;2023-07-31T00:00:43;24.20;50.90
80367;DHT22;70058;42.660;23.366;2023-07-31T00:03:09;24.10;51.20
80367;DHT22;70058;42.660;23.366;2023-07-31T00:05:35;24.10;51.40
80367;DHT22;70058;42.660;23.366;2023-07-31T00:08:01;24.10;51.40
80367;DHT22;70058;42.660;23.366;2023-07-31T00:10:27;24.20;51.60
80367;DHT22;70058;42.660;23.366;2023-07-31T00:12:52;24.20;50.80
80367;DHT22;70058;42.660;23.366;2023-07-31T00:15:18;24.20;50.80
80367;DHT22;70058;42.660;23.366;2023-07-31T00:17:43;24.30;50.60
80367;DHT22;70058;42.660;23.366;2023-07-31T00:20:10;24.30;50.50
80367;DHT22;70058;42.660;23.366;2023-07-31T00:22:35;24.50;49.90
80367;DHT22;70058;42.660;23.366;2023-07-31T00:25:01;24.40;50.40
80367;DHT22;70058;42.660;23.366;2023-07-31T00:27:27;24.10;50.90
80367;DHT22;70058;42.660;23.366;2023-07-31T00:29:53;24.10;50.90
80367;DHT22;70058;42.660;23.366;2023-07-31T00:32:18;24.20;51.00
80367;DHT22;70058;42.660;23.366;2023-07-31T00:34:44;24.10;51.30
80367;DHT22;70058;42.660;23.366;2023-07-31T00:37:10;24.00;52.00
80367;DHT22;70058;42.660;23.366;2023-07-31T00:39:35;24.00;52.30
80367;DHT22;70058;42.660;23.366;2023-07-31T00:42:01;24.00;52.80
80367;DHT22;70058;42.660;23.366;2023-07-31T00:44:27;24.20;52.10
80367;DHT22;70058;42.660;23.366;2023-07-31T00:46:53;24.20;52.10
80367;DHT22;70058;42.660;23.366;2023-07-31T00:49:20;24.00;53.70
80367;DHT22;70058;42.660;23.366;2023-07-31T00:51:46;23.90;53.20
80367;DHT22;70058;42.660;23.366;2023-07-31T00:54:12;24.00;53.40
80367;DHT22;70058;42.660;23.366;2023-07-31T00:56:38;24.00;53.10
80367;DHT22;70058;42.660;23.366;2023-07-31T00:59:03;24.00;53.30
80367;DHT22;70058;42.660;23.366;2023-07-31T01:01:29;23.80;53.70
80367;DHT22;70058;42.660;23.366;2023-07-31T01:03:55;23.70;54.10
80367;DHT22;70058;42.660;23.366;2023-07-31T01:09:07;23.70;54.70
80367;DHT22;70058;42.660;23.366;2023-07-31T01:11:38;23.50;55.30
80367;DHT22;70058;42.660;23.366;2023-07-31T01:14:06;23.50;55.60
80367;DHT22;70058;42.660;23.366;2023-07-31T01:16:32;23.30;55.80
80367;DHT22;70058;42.660;23.366;2023-07-31T01:18:57;23.30;56.20
80367;DHT22;70058;42.660;23.366;2023-07-31T01:27:06;23.20;56.60
80367;DHT22;70058;42.660;23.366;2023-07-31T01:32:12;23.00;57.40
80367;DHT22;70058;42.660;23.366;2023-07-31T01:34:38;22.90;57.60
80367;DHT22;70058;42.660;23.366;2023-07-31T01:37:05;22.80;57.80
80367;DHT22;70058;42.660;23.366;2023-07-31T01:39:30;22.70;57.90
80367;DHT22;70058;42.660;23.366;2023-07-31T01:41:56;22.60;58.30
80367;DHT22;70058;42.660;23.366;2023-07-31T01:44:22;22.70;58.60
80367;DHT22;70058;42.660;23.366;2023-07-31T01:46:47;22.60;58.80
80367;DHT22;70058;42.660;23.366;2023-07-31T01:49:13;22.50;59.20
80367;DHT22;70058;42.660;23.366;2023-07-31T01:51:39;22.50;60.10
80367;DHT22;70058;42.660;23.366;2023-07-31T01:54:04;22.50;59.50
80367;DHT22;70058;42.660;23.366;2023-07-31T01:56:31;22.60;59.40
80367;DHT22;70058;42.660;23.366;2023-07-31T01:58:56;22.50;59.20
80367;DHT22;70058;42.660;23.366;2023-07-31T02:01:22;22.50;59.40
80367;DHT22;70058;42.660;23.366;2023-07-31T02:03:47;22.50;59.70
80367;DHT22;70058;42.660;23.366;2023-07-31T02:06:13;22.30;60.20
80367;DHT22;70058;42.660;23.366;2023-07-31T02:08:39;22.30;60.30
80367;DHT22;70058;42.660;23.366;2023-07-31T02:11:04;22.30;60.40
80367;DHT22;70058;42.660;23.366;2023-07-31T02:13:30;22.30;60.60
80367;DHT22;70058;42.660;23.366;2023-07-31T02:15:55;22.40;60.30
80367;DHT22;70058;42.660;23.366;2023-07-31T02:18:21;22.50;60.20
80367;DHT22;70058;42.660;23.366;2023-07-31T02:20:51;22.50;60.10
80367;DHT22;70058;42.660;23.366;2023-07-31T02:23:18;22.60;59.80
80367;DHT22;70058;42.660;23.366;2023-07-31T02:25:44;22.70;59.50
80367;DHT22;70058;42.660;23.366;2023-07-31T02:28:10;22.70;59.50
80367;DHT22;70058;42.660;23.366;2023-07-31T02:30:36;22.80;59.50
80367;DHT22;70058;42.660;23.366;2023-07-31T02:33:01;22.80;59.40
80367;DHT22;70058;42.660;23.366;2023-07-31T02:35:27;22.80;59.50
80367;DHT22;70058;42.660;23.366;2023-07-31T02:37:52;22.70;59.60
80367;DHT22;70058;42.660;23.366;2023-07-31T02:40:18;22.60;59.80
80367;DHT22;70058;42.660;23.366;2023-07-31T02:42:44;22.60;60.10
80367;DHT22;70058;42.660;23.366;2023-07-31T02:45:09;22.60;60.10
80367;DHT22;70058;42.660;23.366;2023-07-31T02:47:35;22.70;59.90
80367;DHT22;70058;42.660;23.366;2023-07-31T02:50:05;22.80;59.80
80367;DHT22;70058;42.660;23.366;2023-07-31T02:52:31;22.80;59.50
80367;DHT22;70058;42.660;23.366;2023-07-31T02:54:58;22.90;59.50
80367;DHT22;70058;42.660;23.366;2023-07-31T02:57:23;22.90;59.40
80367;DHT22;70058;42.660;23.366;2023-07-31T02:59:49;22.90;59.20
80367;DHT22;70058;42.660;23.366;2023-07-31T03:02:15;23.10;58.70
80367;DHT22;70058;42.660;23.366;2023-07-31T03:04:40;23.10;58.60
80367;DHT22;70058;42.660;23.366;2023-07-31T03:07:06;23.10;58.40
80367;DHT22;70058;42.660;23.366;2023-07-31T03:09:32;23.20;58.40
80367;DHT22;70058;42.660;23.366;2023-07-31T03:11:57;23.20;58.10
80367;DHT22;70058;42.660;23.366;2023-07-31T03:14:23;23.30;58.00
80367;DHT22;70058;42.660;23.366;2023-07-31T03:16:49;23.40;57.50
80367;DHT22;70058;42.660;23.366;2023-07-31T03:19:15;23.50;57.10
80367;DHT22;70058;42.660;23.366;2023-07-31T03:21:41;23.50;57.20
80367;DHT22;70058;42.660;23.366;2023-07-31T03:24:06;23.60;56.70
80367;DHT22;70058;42.660;23.366;2023-07-31T03:26:32;23.70;56.80
80367;DHT22;70058;42.660;23.366;2023-07-31T03:28:58;23.70;56.60
80367;DHT22;70058;42.660;23.366;2023-07-31T03:31:24;23.80;56.30
80367;DHT22;70058;42.660;23.366;2023-07-31T03:33:50;23.80;56.40
80367;DHT22;70058;42.660;23.366;2023-07-31T03:36:15;23.80;57.20
80367;DHT22;70058;42.660;23.366;2023-07-31T03:38:41;23.80;56.20
80367;DHT22;70058;42.660;23.366;2023-07-31T03:41:06;23.80;56.20
80367;DHT22;70058;42.660;23.366;2023-07-31T03:43:32;23.70;56.40
80367;DHT22;70058;42.660;23.366;2023-07-31T03:46:01;23.70;56.40
80367;DHT22;70058;42.660;23.366;2023-07-31T03:48:28;23.80;56.30
80367;DHT22;70058;42.660;23.366;2023-07-31T03:50:54;23.80;56.10
80367;DHT22;70058;42.660;23.366;2023-07-31T03:53:20;23.80;56.10
80367;DHT22;70058;42.660;23.366;2023-07-31T03:55:45;23.80;55.90
80367;DHT22;70058;42.660;23.366;2023-07-31T03:58:11;23.70;55.80
80367;DHT22;70058;42.660;23.366;2023-07-31T04:00:37;23.60;56.10
80367;DHT22;70058;42.660;23.366;2023-07-31T04:03:02;23.60;56.10
80367;DHT22;70058;42.660;23.366;2023-07-31T04:05:31;23.60;56.30
80367;DHT22;70058;42.660;23.366;2023-07-31T04:07:57;23.60;56.30
80367;DHT22;70058;42.660;23.366;2023-07-31T04:10:22;23.60;56.20
80367;DHT22;70058;42.660;23.366;2023-07-31T04:12:48;23.70;56.20
80367;DHT22;70058;42.660;23.366;2023-07-31T04:15:14;23.70;55.90
80367;DHT22;70058;42.660;23.366;2023-07-31T04:17:39;23.80;55.80
80367;DHT22;70058;42.660;23.366;2023-07-31T04:20:06;23.90;55.50
80367;DHT22;70058;42.660;23.366;2023-07-31T04:22:31;24.00;55.20
80367;DHT22;70058;42.660;23.366;2023-07-31T04:24:57;24.10;54.80
80367;DHT22;70058;42.660;23.366;2023-07-31T04:27:23;24.20;54.60
80367;DHT22;70058;42.660;23.366;2023-07-31T04:29:48;24.30;54.10
80367;DHT22;70058;42.660;23.366;2023-07-31T04:32:14;24.30;53.90
80367;DHT22;70058;42.660;23.366;2023-07-31T04:34:42;24.30;53.80
80367;DHT22;70058;42.660;23.366;2023-07-31T04:37:08;24.40;53.60
80367;DHT22;70058;42.660;23.366;2023-07-31T04:39:33;24.30;53.80
80367;DHT22;70058;42.660;23.366;2023-07-31T04:41:59;24.30;53.70
80367;DHT22;70058;42.660;23.366;2023-07-31T04:44:24;24.30;53.60
80367;DHT22;70058;42.660;23.366;2023-07-31T04:46:50;24.50;53.20
80367;DHT22;70058;42.660;23.366;2023-07-31T04:49:16;24.60;52.80
80367;DHT22;70058;42.660;23.366;2023-07-31T04:51:41;24.70;52.60
80367;DHT22;70058;42.660;23.366;2023-07-31T04:54:07;24.70;52.30
80367;DHT22;70058;42.660;23.366;2023-07-31T04:56:33;24.70;52.30
80367;DHT22;70058;42.660;23.366;2023-07-31T04:58:58;24.90;51.80
80367;DHT22;70058;42.660;23.366;2023-07-31T05:01:24;25.00;51.50
80367;DHT22;70058;42.660;23.366;2023-07-31T05:03:50;25.20;51.00
80367;DHT22;70058;42.660;23.366;2023-07-31T05:06:16;25.60;50.30
80367;DHT22;70058;42.660;23.366;2023-07-31T05:08:41;26.10;49.20
80367;DHT22;70058;42.660;23.366;2023-07-31T05:11:07;26.30;48.10
80367;DHT22;70058;42.660;23.366;2023-07-31T05:13:33;26.50;47.90
80367;DHT22;70058;42.660;23.366;2023-07-31T05:15:58;26.60;47.40
80367;DHT22;70058;42.660;23.366;2023-07-31T05:18:24;27.10;46.90
80367;DHT22;70058;42.660;23.366;2023-07-31T05:20:49;27.30;45.70
80367;DHT22;70058;42.660;23.366;2023-07-31T05:23:15;27.50;45.20
80367;DHT22;70058;42.660;23.366;2023-07-31T05:25:41;27.50;45.10
80367;DHT22;70058;42.660;23.366;2023-07-31T05:28:06;27.60;45.60
80367;DHT22;70058;42.660;23.366;2023-07-31T05:30:32;27.70;44.50
80367;DHT22;70058;42.660;23.366;2023-07-31T05:32:58;27.80;44.60
80367;DHT22;70058;42.660;23.366;2023-07-31T05:35:23;27.80;45.00
80367;DHT22;70058;42.660;23.366;2023-07-31T05:37:49;28.10;43.60
80367;DHT22;70058;42.660;23.366;2023-07-31T05:40:15;28.30;43.20
80367;DHT22;70058;42.660;23.366;2023-07-31T05:42:40;28.40;42.50
80367;DHT22;70058;42.660;23.366;2023-07-31T05:45:07;28.50;42.30
80367;DHT22;70058;42.660;23.366;2023-07-31T05:47:33;28.30;42.20
80367;DHT22;70058;42.660;23.366;2023-07-31T05:49:59;28.30;42.10
80367;DHT22;70058;42.660;23.366;2023-07-31T05:52:24;28.40;41.60
80367;DHT22;70058;42.660;23.366;2023-07-31T05:54:51;28.00;41.80
80367;DHT22;70058;42.660;23.366;2023-07-31T05:57:17;28.10;41.80
80367;DHT22;70058;42.660;23.366;2023-07-31T05:59:42;28.20;41.50
80367;DHT22;70058;42.660;23.366;2023-07-31T06:02:08;28.10;41.20
80367;DHT22;70058;42.660;23.366;2023-07-31T06:04:33;28.20;41.00
80367;DHT22;70058;42.660;23.366;2023-07-31T06:07:00;28.30;40.70
80367;DHT22;70058;42.660;23.366;2023-07-31T06:09:26;28.50;40.00
80367;DHT22;70058;42.660;23.366;2023-07-31T06:11:51;28.60;39.90
80367;DHT22;70058;42.660;23.366;2023-07-31T06:14:17;28.80;39.50
80367;DHT22;70058;42.660;23.366;2023-07-31T06:16:44;29.10;39.20
80367;DHT22;70058;42.660;23.366;2023-07-31T06:19:10;29.50;38.10
80367;DHT22;70058;42.660;23.366;2023-07-31T06:21:36;30.10;36.90
80367;DHT22;70058;42.660;23.366;2023-07-31T06:24:07;31.40;34.60
80367;DHT22;70058;42.660;23.366;2023-07-31T06:26:33;33.30;31.90
80367;DHT22;70058;42.660;23.366;2023-07-31T06:28:59;34.60;30.00
80367;DHT22;70058;42.660;23.366;2023-07-31T06:31:25;34.90;29.30
80367;DHT22;70058;42.660;23.366;2023-07-31T06:33:51;34.70;29.20
80367;DHT22;70058;42.660;23.366;2023-07-31T06:36:17;34.60;29.40
80367;DHT22;70058;42.660;23.366;2023-07-31T06:38:43;35.50;28.80
80367;DHT22;70058;42.660;23.366;2023-07-31T06:41:09;37.90;26.70
80367;DHT22;70058;42.660;23.366;2023-07-31T06:43:36;39.80;25.00
80367;DHT22;70058;42.660;23.366;2023-07-31T06:46:09;41.00;23.70
80367;DHT22;70058;42.660;23.366;2023-07-31T06:48:35;42.30;22.60
80367;DHT22;70058;42.660;23.366;2023-07-31T06:51:02;43.70;21.20
80367;DHT22;70058;42.660;23.366;2023-07-31T06:53:28;44.20;20.90
80367;DHT22;70058;42.660;23.366;2023-07-31T06:55:54;45.00;20.30
80367;DHT22;70058;42.660;23.366;2023-07-31T06:58:20;45.30;19.60
80367;DHT22;70058;42.660;23.366;2023-07-31T07:00:46;45.90;19.40
80367;DHT22;70058;42.660;23.366;2023-07-31T07:03:11;46.70;18.90
80367;DHT22;70058;42.660;23.366;2023-07-31T07:05:40;47.40;18.30
80367;DHT22;70058;42.660;23.366;2023-07-31T07:08:05;47.20;18.10
80367;DHT22;70058;42.660;23.366;2023-07-31T07:10:31;47.30;18.10
80367;DHT22;70058;42.660;23.366;2023-07-31T07:12:57;47.90;17.70
80367;DHT22;70058;42.660;23.366;2023-07-31T07:15:22;48.30;17.40
80367;DHT22;70058;42.660;23.366;2023-07-31T07:17:48;48.50;17.10
80367;DHT22;70058;42.660;23.366;2023-07-31T07:20:14;48.80;17.00
80367;DHT22;70058;42.660;23.366;2023-07-31T07:22:40;48.80;16.80
80367;DHT22;70058;42.660;23.366;2023-07-31T07:25:08;48.80;17.00
80367;DHT22;70058;42.660;23.366;2023-07-31T07:27:34;49.40;16.70
80367;DHT22;70058;42.660;23.366;2023-07-31T07:30:00;48.90;16.60
80367;DHT22;70058;42.660;23.366;2023-07-31T07:32:26;49.60;16.40
80367;DHT22;70058;42.660;23.366;2023-07-31T07:34:52;50.70;16.00
80367;DHT22;70058;42.660;23.366;2023-07-31T07:37:17;51.70;15.40
80367;DHT22;70058;42.660;23.366;2023-07-31T07:39:43;52.20;15.10
80367;DHT22;70058;42.660;23.366;2023-07-31T07:42:09;51.60;15.10
80367;DHT22;70058;42.660;23.366;2023-07-31T07:44:35;50.70;15.30
80367;DHT22;70058;42.660;23.366;2023-07-31T07:47:00;48.80;16.10
80367;DHT22;70058;42.660;23.366;2023-07-31T07:49:26;48.10;16.70
80367;DHT22;70058;42.660;23.366;2023-07-31T07:51:52;46.50;17.30
80367;DHT22;70058;42.660;23.366;2023-07-31T07:54:17;45.90;17.80
80367;DHT22;70058;42.660;23.366;2023-07-31T07:56:43;44.30;18.60
80367;DHT22;70058;42.660;23.366;2023-07-31T07:59:09;44.80;18.50
80367;DHT22;70058;42.660;23.366;2023-07-31T08:01:34;46.10;17.90
80367;DHT22;70058;42.660;23.366;2023-07-31T08:04:00;45.80;17.80
80367;DHT22;70058;42.660;23.366;2023-07-31T08:06:25;46.00;18.10
80367;DHT22;70058;42.660;23.366;2023-07-31T08:08:51;47.40;17.00
80367;DHT22;70058;42.660;23.366;2023-07-31T08:11:17;48.80;16.30
80367;DHT22;70058;42.660;23.366;2023-07-31T08:13:42;47.60;16.30
80367;DHT22;70058;42.660;23.366;2023-07-31T08:16:08;45.70;17.30
80367;DHT22;70058;42.660;23.366;2023-07-31T08:18:35;45.80;17.50
80367;DHT22;70058;42.660;23.366;2023-07-31T08:21:02;46.20;17.30
80367;DHT22;70058;42.660;23.366;2023-07-31T08:23:28;47.10;16.90
80367;DHT22;70058;42.660;23.366;2023-07-31T08:25:53;48.40;16.00
80367;DHT22;70058;42.660;23.366;2023-07-31T08:28:19;50.30;15.20
80367;DHT22;70058;42.660;23.366;2023-07-31T08:30:45;50.10;15.10
80367;DHT22;70058;42.660;23.366;2023-07-31T08:33:10;48.40;15.80
80367;DHT22;70058;42.660;23.366;2023-07-31T08:35:36;49.10;15.80
80367;DHT22;70058;42.660;23.366;2023-07-31T08:38:02;50.20;16.00
80367;DHT22;70058;42.660;23.366;2023-07-31T08:40:28;51.20;14.50
80367;DHT22;70058;42.660;23.366;2023-07-31T08:42:55;52.10;14.00
80367;DHT22;70058;42.660;23.366;2023-07-31T08:45:27;52.80;13.70
80367;DHT22;70058;42.660;23.366;2023-07-31T08:47:53;52.20;13.90
80367;DHT22;70058;42.660;23.366;2023-07-31T08:50:20;52.30;13.70
80367;DHT22;70058;42.660;23.366;2023-07-31T08:52:48;52.70;13.40
80367;DHT22;70058;42.660;23.366;2023-07-31T08:55:14;53.50;13.20
80367;DHT22;70058;42.660;23.366;2023-07-31T08:57:42;54.10;13.00
80367;DHT22;70058;42.660;23.366;2023-07-31T09:00:09;54.60;12.60
80367;DHT22;70058;42.660;23.366;2023-07-31T09:02:45;55.60;12.30
80367;DHT22;70058;42.660;23.366;2023-07-31T09:05:11;56.00;12.20
80367;DHT22;70058;42.660;23.366;2023-07-31T09:07:38;56.40;11.90
80367;DHT22;70058;42.660;23.366;2023-07-31T09:10:04;56.90;11.50
80367;DHT22;70058;42.660;23.366;2023-07-31T09:12:31;57.30;11.40
80367;DHT22;70058;42.660;23.366;2023-07-31T09:14:58;57.00;11.40
80367;DHT22;70058;42.660;23.366;2023-07-31T09:17:34;56.30;11.70
80367;DHT22;70058;42.660;23.366;2023-07-31T09:20:18;53.90;12.50
80367;DHT22;70058;42.660;23.366;2023-07-31T09:22:44;50.50;14.20
80367;DHT22;70058;42.660;23.366;2023-07-31T09:25:26;47.90;15.20
80367;DHT22;70058;42.660;23.366;2023-07-31T09:27:58;47.40;15.80
80367;DHT22;70058;42.660;23.366;2023-07-31T09:30:24;48.70;15.10
80367;DHT22;70058;42.660;23.366;2023-07-31T09:32:51;49.20;15.00
80367;DHT22;70058;42.660;23.366;2023-07-31T09:35:27;49.90;14.50
80367;DHT22;70058;42.660;23.366;2023-07-31T09:37:55;51.90;13.70
80367;DHT22;70058;42.660;23.366;2023-07-31T09:40:32;53.70;12.70
80367;DHT22;70058;42.660;23.366;2023-07-31T09:43:06;52.80;13.20
80367;DHT22;70058;42.660;23.366;2023-07-31T09:45:36;52.90;13.10
80367;DHT22;70058;42.660;23.366;2023-07-31T09:48:03;54.40;12.40
80367;DHT22;70058;42.660;23.366;2023-07-31T09:50:29;55.50;11.90
80367;DHT22;70058;42.660;23.366;2023-07-31T09:52:55;55.30;11.80
80367;DHT22;70058;42.660;23.366;2023-07-31T09:55:21;54.70;12.10
80367;DHT22;70058;42.660;23.366;2023-07-31T09:57:49;55.70;11.50
80367;DHT22;70058;42.660;23.366;2023-07-31T10:00:17;56.10;11.50
80367;DHT22;70058;42.660;23.366;2023-07-31T10:02:47;54.20;12.30
80367;DHT22;70058;42.660;23.366;2023-07-31T10:05:14;53.20;12.60
80367;DHT22;70058;42.660;23.366;2023-07-31T10:07:50;53.40;12.60
80367;DHT22;70058;42.660;23.366;2023-07-31T10:10:16;53.00;12.60
80367;DHT22;70058;42.660;23.366;2023-07-31T10:12:44;51.50;13.10
80367;DHT22;70058;42.660;23.366;2023-07-31T10:15:11;51.80;13.00
80367;DHT22;70058;42.660;23.366;2023-07-31T10:17:38;52.70;12.40
80367;DHT22;70058;42.660;23.366;2023-07-31T10:20:04;53.10;12.40
80367;DHT22;70058;42.660;23.366;2023-07-31T10:22:31;51.10;13.20
80367;DHT22;70058;42.660;23.366;2023-07-31T10:24:59;50.00;14.10
80367;DHT22;70058;42.660;23.366;2023-07-31T10:27:26;50.30;13.70
80367;DHT22;70058;42.660;23.366;2023-07-31T10:29:57;50.00;13.90
80367;DHT22;70058;42.660;23.366;2023-07-31T10:32:24;50.20;13.90
80367;DHT22;70058;42.660;23.366;2023-07-31T10:34:51;50.40;13.80
80367;DHT22;70058;42.660;23.366;2023-07-31T10:37:28;49.90;14.30
80367;DHT22;70058;42.660;23.366;2023-07-31T10:42:38;46.50;15.90
80367;DHT22;70058;42.660;23.366;2023-07-31T10:45:07;45.20;16.70
80367;DHT22;70058;42.660;23.366;2023-07-31T10:50:20;42.90;18.20
80367;DHT22;70058;42.660;23.366;2023-07-31T10:52:47;41.60;19.00
80367;DHT22;70058;42.660;23.366;2023-07-31T10:55:15;40.90;19.30
80367;DHT22;70058;42.660;23.366;2023-07-31T10:57:46;40.30;19.80
80367;DHT22;70058;42.660;23.366;2023-07-31T11:03:03;39.10;20.40
80367;DHT22;70058;42.660;23.366;2023-07-31T11:05:45;38.40;21.30
80367;DHT22;70058;42.660;23.366;2023-07-31T11:10:50;37.40;21.40
80367;DHT22;70058;42.660;23.366;2023-07-31T11:13:15;37.00;21.80
80367;DHT22;70058;42.660;23.366;2023-07-31T11:15:41;36.60;21.90
80367;DHT22;70058;42.660;23.366;2023-07-31T11:18:07;36.30;22.30
80367;DHT22;70058;42.660;23.366;2023-07-31T11:20:34;36.10;22.50
80367;DHT22;70058;42.660;23.366;2023-07-31T11:23:02;35.70;23.20
80367;DHT22;70058;42.660;23.366;2023-07-31T11:25:31;35.70;23.30
80367;DHT22;70058;42.660;23.366;2023-07-31T11:28:23;35.60;22.90
80367;DHT22;70058;42.660;23.366;2023-07-31T11:30:47;35.60;23.90
80367;DHT22;70058;42.660;23.366;2023-07-31T11:33:13;35.20;23.30
80367;DHT22;70058;42.660;23.366;2023-07-31T11:35:46;35.10;23.40
80367;DHT22;70058;42.660;23.366;2023-07-31T11:38:12;35.20;23.50
80367;DHT22;70058;42.660;23.366;2023-07-31T11:40:47;35.00;23.70
80367;DHT22;70058;42.660;23.366;2023-07-31T11:43:13;34.90;24.10
80367;DHT22;70058;42.660;23.366;2023-07-31T11:45:47;34.90;24.40
80367;DHT22;70058;42.660;23.366;2023-07-31T11:48:27;34.70;24.10
80367;DHT22;70058;42.660;23.366;2023-07-31T11:50:54;34.70;24.30
80367;DHT22;70058;42.660;23.366;2023-07-31T11:53:28;34.70;24.10
80367;DHT22;70058;42.660;23.366;2023-07-31T11:55:58;34.60;24.70
80367;DHT22;70058;42.660;23.366;2023-07-31T11:58:24;34.30;24.60
80367;DHT22;70058;42.660;23.366;2023-07-31T12:00:51;34.40;24.50
80367;DHT22;70058;42.660;23.366;2023-07-31T12:03:18;34.20;24.50
80367;DHT22;70058;42.660;23.366;2023-07-31T12:05:43;34.10;24.90
80367;DHT22;70058;42.660;23.366;2023-07-31T12:08:11;34.10;25.20
80367;DHT22;70058;42.660;23.366;2023-07-31T12:10:40;33.70;25.50
80367;DHT22;70058;42.660;23.366;2023-07-31T12:13:09;33.60;26.00
80367;DHT22;70058;42.660;23.366;2023-07-31T12:15:44;33.80;25.90
80367;DHT22;70058;42.660;23.366;2023-07-31T12:18:19;34.20;25.60
80367;DHT22;70058;42.660;23.366;2023-07-31T12:20:46;34.40;25.30
80367;DHT22;70058;42.660;23.366;2023-07-31T12:23:20;34.60;25.00
80367;DHT22;70058;42.660;23.366;2023-07-31T12:26:07;34.80;24.70
80367;DHT22;70058;42.660;23.366;2023-07-31T12:28:47;34.60;24.60
80367;DHT22;70058;42.660;23.366;2023-07-31T12:31:17;34.60;24.50
80367;DHT22;70058;42.660;23.366;2023-07-31T12:33:44;34.50;24.60
80367;DHT22;70058;42.660;23.366;2023-07-31T12:36:11;34.30;24.80
80367;DHT22;70058;42.660;23.366;2023-07-31T12:38:38;34.10;25.00
80367;DHT22;70058;42.660;23.366;2023-07-31T12:41:03;33.90;25.00
80367;DHT22;70058;42.660;23.366;2023-07-31T12:43:29;33.80;25.10
80367;DHT22;70058;42.660;23.366;2023-07-31T12:45:55;33.90;25.10
80367;DHT22;70058;42.660;23.366;2023-07-31T12:48:24;33.90;25.20
80367;DHT22;70058;42.660;23.366;2023-07-31T12:50:50;34.00;25.10
80367;DHT22;70058;42.660;23.366;2023-07-31T12:53:15;34.00;25.20
80367;DHT22;70058;42.660;23.366;2023-07-31T12:55:41;34.10;25.00
80367;DHT22;70058;42.660;23.366;2023-07-31T12:58:07;34.10;24.90
80367;DHT22;70058;42.660;23.366;2023-07-31T13:00:33;34.00;25.00
80367;DHT22;70058;42.660;23.366;2023-07-31T13:02:59;34.40;25.30
80367;DHT22;70058;42.660;23.366;2023-07-31T13:05:25;34.70;24.70
80367;DHT22;70058;42.660;23.366;2023-07-31T13:07:51;35.10;24.60
80367;DHT22;70058;42.660;23.366;2023-07-31T13:10:17;35.40;24.10
80367;DHT22;70058;42.660;23.366;2023-07-31T13:12:43;35.30;23.90
80367;DHT22;70058;42.660;23.366;2023-07-31T13:15:09;35.10;23.80
80367;DHT22;70058;42.660;23.366;2023-07-31T13:17:35;34.60;24.10
80367;DHT22;70058;42.660;23.366;2023-07-31T13:20:01;34.40;24.20
80367;DHT22;70058;42.660;23.366;2023-07-31T13:22:27;34.00;24.60
80367;DHT22;70058;42.660;23.366;2023-07-31T13:24:53;33.90;25.50
80367;DHT22;70058;42.660;23.366;2023-07-31T13:27:18;33.40;25.10
80367;DHT22;70058;42.660;23.366;2023-07-31T13:29:47;33.30;25.20
80367;DHT22;70058;42.660;23.366;2023-07-31T13:32:13;33.30;25.10
80367;DHT22;70058;42.660;23.366;2023-07-31T13:34:39;33.30;25.00
80367;DHT22;70058;42.660;23.366;2023-07-31T13:37:05;33.60;25.20
80367;DHT22;70058;42.660;23.366;2023-07-31T13:39:33;33.90;25.70
80367;DHT22;70058;42.660;23.366;2023-07-31T13:41:59;34.20;25.00
80367;DHT22;70058;42.660;23.366;2023-07-31T13:44:25;34.30;24.80
80367;DHT22;70058;42.660;23.366;2023-07-31T13:46:51;34.20;25.00
80367;DHT22;70058;42.660;23.366;2023-07-31T13:49:17;34.00;25.20
80367;DHT22;70058;42.660;23.366;2023-07-31T13:51:42;34.00;24.40
80367;DHT22;70058;42.660;23.366;2023-07-31T13:54:08;33.80;24.60
80367;DHT22;70058;42.660;23.366;2023-07-31T13:56:34;34.00;24.70
80367;DHT22;70058;42.660;23.366;2023-07-31T13:59:00;34.20;24.40
80367;DHT22;70058;42.660;23.366;2023-07-31T14:01:26;34.40;24.30
80367;DHT22;70058;42.660;23.366;2023-07-31T14:03:52;34.30;24.30
80367;DHT22;70058;42.660;23.366;2023-07-31T14:06:18;34.30;24.70
80367;DHT22;70058;42.660;23.366;2023-07-31T14:08:44;34.30;24.70
80367;DHT22;70058;42.660;23.366;2023-07-31T14:11:10;34.40;24.40
80367;DHT22;70058;42.660;23.366;2023-07-31T14:13:35;34.30;24.60
80367;DHT22;70058;42.660;23.366;2023-07-31T14:16:01;33.90;24.70
80367;DHT22;70058;42.660;23.366;2023-07-31T14:18:27;34.00;25.10
80367;DHT22;70058;42.660;23.366;2023-07-31T14:20:52;34.10;25.10
80367;DHT22;70058;42.660;23.366;2023-07-31T14:23:18;33.90;25.20
80367;DHT22;70058;42.660;23.366;2023-07-31T14:25:45;33.90;25.30
80367;DHT22;70058;42.660;23.366;2023-07-31T14:28:11;33.70;25.50
80367;DHT22;70058;42.660;23.366;2023-07-31T14:30:37;33.70;25.70
80367;DHT22;70058;42.660;23.366;2023-07-31T14:33:02;33.60;25.70
80367;DHT22;70058;42.660;23.366;2023-07-31T14:35:28;33.30;26.30
80367;DHT22;70058;42.660;23.366;2023-07-31T14:37:54;33.10;26.50
80367;DHT22;70058;42.660;23.366;2023-07-31T14:40:19;32.90;27.00
80367;DHT22;70058;42.660;23.366;2023-07-31T14:42:45;32.70;27.20
80367;DHT22;70058;42.660;23.366;2023-07-31T14:45:11;32.50;27.50
80367;DHT22;70058;42.660;23.366;2023-07-31T14:47:37;32.30;27.70
80367;DHT22;70058;42.660;23.366;2023-07-31T14:50:03;32.30;27.80
80367;DHT22;70058;42.660;23.366;2023-07-31T14:52:29;32.40;27.90
80367;DHT22;70058;42.660;23.366;2023-07-31T14:54:55;32.40;27.90
80367;DHT22;70058;42.660;23.366;2023-07-31T14:57:21;32.40;28.00
80367;DHT22;70058;42.660;23.366;2023-07-31T14:59:47;32.40;27.70
80367;DHT22;70058;42.660;23.366;2023-07-31T15:02:13;32.40;27.90
80367;DHT22;70058;42.660;23.366;2023-07-31T15:04:38;32.50;27.70
80367;DHT22;70058;42.660;23.366;2023-07-31T15:07:04;32.60;27.60
80367;DHT22;70058;42.660;23.366;2023-07-31T15:09:33;32.70;28.30
80367;DHT22;70058;42.660;23.366;2023-07-31T15:11:59;32.50;27.60
80367;DHT22;70058;42.660;23.366;2023-07-31T15:14:25;32.30;27.90
80367;DHT22;70058;42.660;23.366;2023-07-31T15:16:52;32.30;28.20
80367;DHT22;70058;42.660;23.366;2023-07-31T15:19:18;32.50;28.00
80367;DHT22;70058;42.660;23.366;2023-07-31T15:21:43;32.60;28.20
80367;DHT22;70058;42.660;23.366;2023-07-31T15:24:09;32.60;28.30
80367;DHT22;70058;42.660;23.366;2023-07-31T15:26:36;32.50;28.10
80367;DHT22;70058;42.660;23.366;2023-07-31T15:29:04;32.50;28.10
80367;DHT22;70058;42.660;23.366;2023-07-31T15:31:45;32.50;28.90
80367;DHT22;70058;42.660;23.366;2023-07-31T15:34:11;32.50;28.10